createdAt,value
2023-01-25T00:00:30.612Z,14.50
2023-01-25T00:02:57.641Z,15.70
2023-01-25T00:05:24.438Z,15.27
2023-01-25T00:07:51.194Z,15.73
2023-01-25T00:10:18.053Z,14.77
2023-01-25T00:12:44.766Z,14.13
2023-01-25T00:15:31.361Z,14.50
2023-01-25T00:18:18.040Z,15.03
2023-01-25T00:21:19.846Z,14.10
2023-01-25T00:24:07.169Z,14.27
2023-01-25T00:26:35.730Z,14.30
2023-01-25T00:29:03.234Z,14.07
2023-01-25T00:31:57.627Z,14.33
2023-01-25T00:34:24.432Z,13.53
2023-01-25T00:37:18.293Z,14.27
2023-01-25T00:39:44.975Z,14.77
2023-01-25T00:42:12.242Z,14.20
2023-01-25T00:44:40.023Z,13.10
2023-01-25T00:47:06.967Z,13.30
2023-01-25T00:49:34.013Z,14.00
2023-01-25T00:52:00.979Z,13.77
2023-01-25T00:54:27.683Z,13.80
2023-01-25T00:56:56.485Z,13.07
2023-01-25T00:59:24.596Z,12.83
2023-01-25T01:01:52.261Z,12.30
2023-01-25T01:04:20.396Z,12.93
2023-01-25T01:06:47.267Z,13.87
2023-01-25T01:09:16.089Z,13.63
2023-01-25T01:11:43.096Z,12.83
2023-01-25T01:14:10.389Z,14.03
2023-01-25T01:16:37.256Z,13.60
2023-01-25T01:19:04.854Z,13.00
2023-01-25T01:21:31.587Z,13.53
2023-01-25T01:23:58.434Z,13.87
2023-01-25T01:26:25.189Z,14.37
2023-01-25T01:28:51.954Z,13.23
2023-01-25T01:31:23.444Z,14.27
2023-01-25T01:33:58.516Z,13.83
2023-01-25T01:36:27.638Z,13.47
2023-01-25T01:38:55.179Z,13.97
2023-01-25T01:41:22.250Z,13.60
2023-01-25T01:43:49.057Z,13.43
2023-01-25T01:46:22.293Z,13.40
2023-01-25T01:49:13.286Z,13.30
2023-01-25T01:51:46.203Z,14.40
2023-01-25T01:54:19.983Z,13.83
2023-01-25T01:57:02.746Z,13.63
2023-01-25T01:59:37.519Z,13.80
2023-01-25T02:02:04.555Z,13.70
2023-01-25T02:04:32.648Z,11.87
2023-01-25T02:07:16.088Z,10.73
2023-01-25T02:09:44.476Z,12.23
2023-01-25T02:12:13.150Z,11.70
2023-01-25T02:14:49.138Z,12.13
2023-01-25T02:17:16.057Z,11.80
2023-01-25T02:20:17.614Z,12.50
2023-01-25T02:22:49.203Z,11.37
2023-01-25T02:25:17.544Z,12.63
2023-01-25T02:27:54.792Z,13.23
2023-01-25T02:30:21.958Z,12.20
2023-01-25T02:32:48.657Z,11.97
2023-01-25T02:35:23.871Z,13.43
2023-01-25T02:37:51.871Z,14.23
2023-01-25T02:40:18.997Z,13.60
2023-01-25T02:42:46.497Z,13.50
2023-01-25T02:45:16.528Z,12.93
2023-01-25T02:47:43.187Z,14.27
2023-01-25T02:50:10.838Z,13.33
2023-01-25T02:52:37.609Z,14.77
2023-01-25T02:55:04.539Z,13.90
2023-01-25T02:57:31.254Z,14.23
2023-01-25T02:59:57.967Z,13.60
2023-01-25T03:02:24.816Z,12.80
2023-01-25T03:04:51.566Z,12.97
2023-01-25T03:07:18.290Z,14.67
2023-01-25T03:09:44.944Z,14.53
2023-01-25T03:12:11.758Z,13.03
2023-01-25T03:14:38.451Z,14.13
2023-01-25T03:17:05.277Z,13.37
2023-01-25T03:19:31.965Z,14.60
2023-01-25T03:21:59.110Z,13.73
2023-01-25T03:24:26.005Z,13.77
2023-01-25T03:27:10.859Z,13.37
2023-01-25T03:29:38.250Z,14.43
2023-01-25T03:32:05.316Z,15.50
2023-01-25T03:34:32.112Z,14.87
2023-01-25T03:36:58.979Z,14.93
2023-01-25T03:39:25.723Z,15.30
2023-01-25T03:41:52.413Z,13.77
2023-01-25T03:44:19.109Z,14.03
2023-01-25T03:46:45.950Z,14.93
2023-01-25T03:49:12.760Z,13.10
2023-01-25T03:51:39.503Z,12.37
2023-01-25T03:54:08.604Z,11.63
2023-01-25T03:56:35.368Z,13.57
2023-01-25T03:59:02.382Z,13.63
2023-01-25T04:01:29.263Z,13.63
2023-01-25T04:03:55.968Z,13.57
2023-01-25T04:06:22.671Z,13.20
2023-01-25T04:08:49.417Z,13.50
2023-01-25T04:11:16.057Z,14.37
2023-01-25T04:13:42.698Z,13.53
2023-01-25T04:16:11.858Z,14.60
2023-01-25T04:18:40.084Z,14.27
2023-01-25T04:21:06.819Z,14.13
2023-01-25T04:23:33.585Z,15.30
2023-01-25T04:26:06.488Z,14.47
2023-01-25T04:28:34.997Z,14.43
2023-01-25T04:31:03.684Z,14.50
2023-01-25T04:33:30.632Z,13.83
2023-01-25T04:35:57.894Z,13.33
2023-01-25T04:38:24.584Z,12.73
2023-01-25T04:40:52.051Z,14.10
2023-01-25T04:43:20.620Z,12.57
2023-01-25T04:45:47.514Z,13.97
2023-01-25T04:48:15.265Z,15.27
2023-01-25T04:50:43.250Z,14.83
2023-01-25T04:53:12.133Z,14.70
2023-01-25T04:55:39.282Z,16.63
2023-01-25T04:58:06.119Z,14.97
2023-01-25T05:00:32.839Z,15.67
2023-01-25T05:02:59.787Z,15.70
2023-01-25T05:05:26.489Z,15.37
2023-01-25T05:07:53.462Z,13.90
2023-01-25T05:10:20.429Z,14.87
2023-01-25T05:12:47.286Z,15.67
2023-01-25T05:15:14.062Z,16.23
2023-01-25T05:17:40.737Z,17.77
2023-01-25T05:20:08.120Z,15.20
2023-01-25T05:22:34.804Z,14.83
2023-01-25T05:25:02.998Z,14.33
2023-01-25T05:27:29.840Z,14.10
2023-01-25T05:29:57.260Z,16.00
2023-01-25T05:32:24.821Z,14.20
2023-01-25T05:34:52.304Z,14.00
2023-01-25T05:37:21.214Z,13.87
2023-01-25T05:39:47.985Z,13.83
2023-01-25T05:42:17.075Z,15.33
2023-01-25T05:44:47.061Z,15.73
2023-01-25T05:47:16.610Z,15.37
2023-01-25T05:49:43.639Z,15.53
2023-01-25T05:52:17.445Z,15.03
2023-01-25T05:54:44.421Z,15.87
2023-01-25T05:57:11.309Z,15.50
2023-01-25T05:59:38.171Z,18.23
2023-01-25T06:02:04.791Z,19.23
2023-01-25T06:04:31.543Z,18.37
2023-01-25T06:06:58.366Z,18.30
2023-01-25T06:09:26.453Z,17.13
2023-01-25T06:11:53.150Z,15.87
2023-01-25T06:14:20.142Z,15.60
2023-01-25T06:16:46.809Z,15.97
2023-01-25T06:19:14.319Z,17.90
2023-01-25T06:21:41.062Z,18.13
2023-01-25T06:24:08.090Z,20.37
2023-01-25T06:26:34.839Z,18.27
2023-01-25T06:29:01.497Z,19.57
2023-01-25T06:31:28.382Z,19.33
2023-01-25T06:33:55.125Z,16.50
2023-01-25T06:36:22.639Z,15.97
2023-01-25T06:38:53.126Z,15.90
2023-01-25T06:41:20.576Z,16.20
2023-01-25T06:43:50.348Z,15.80
2023-01-25T06:46:17.711Z,15.00
2023-01-25T06:48:44.620Z,15.67
2023-01-25T06:51:13.850Z,16.33
2023-01-25T06:53:42.856Z,14.77
2023-01-25T06:56:18.192Z,15.00
2023-01-25T06:58:45.207Z,17.10
2023-01-25T07:01:13.689Z,17.60
2023-01-25T07:03:41.136Z,16.03
2023-01-25T07:06:09.664Z,16.60
2023-01-25T07:08:37.116Z,14.17
2023-01-25T07:11:07.252Z,14.43
2023-01-25T07:13:34.892Z,12.50
2023-01-25T07:16:05.496Z,13.37
2023-01-25T07:18:33.046Z,14.27
2023-01-25T07:21:08.749Z,14.53
2023-01-25T07:23:37.993Z,13.50
2023-01-25T07:26:06.025Z,12.60
2023-01-25T07:28:33.264Z,14.27
2023-01-25T07:31:07.592Z,14.33
2023-01-25T07:33:34.967Z,13.57
2023-01-25T07:36:07.534Z,13.83
2023-01-25T07:38:34.925Z,14.90
2023-01-25T07:41:01.631Z,14.07
2023-01-25T07:43:29.284Z,15.37
2023-01-25T07:46:01.574Z,15.47
2023-01-25T07:48:28.620Z,14.97
2023-01-25T07:51:20.879Z,13.67
2023-01-25T07:53:48.799Z,13.93
2023-01-25T07:56:16.062Z,15.17
2023-01-25T07:58:42.837Z,14.70
2023-01-25T08:01:12.108Z,15.43
2023-01-25T08:03:38.978Z,14.60
2023-01-25T08:06:06.392Z,14.93
2023-01-25T08:08:38.873Z,15.90
2023-01-25T08:11:16.496Z,15.90
2023-01-25T08:13:46.691Z,15.97
2023-01-25T08:16:14.635Z,16.13
2023-01-25T08:18:41.275Z,17.07
2023-01-25T08:21:08.512Z,16.73
2023-01-25T08:23:35.500Z,17.17
2023-01-25T08:26:04.296Z,17.63
2023-01-25T08:28:31.344Z,17.23
2023-01-25T08:31:19.195Z,18.03
2023-01-25T08:33:47.105Z,18.47
2023-01-25T08:36:15.495Z,17.83
2023-01-25T08:38:42.771Z,17.03
2023-01-25T08:41:12.824Z,16.43
2023-01-25T08:43:39.947Z,18.10
2023-01-25T08:46:06.839Z,17.73
2023-01-25T08:48:33.646Z,17.03
2023-01-25T08:51:01.365Z,19.63
2023-01-25T08:53:29.807Z,19.30
2023-01-25T08:55:57.001Z,18.80
2023-01-25T08:58:23.870Z,17.33
2023-01-25T09:00:50.781Z,18.63
2023-01-25T09:03:18.563Z,18.37
2023-01-25T09:05:46.834Z,18.17
2023-01-25T09:08:13.546Z,18.07
2023-01-25T09:10:40.320Z,18.30
2023-01-25T09:13:08.674Z,17.63
2023-01-25T09:15:35.615Z,17.73
2023-01-25T09:18:02.393Z,16.10
2023-01-25T09:20:31.709Z,19.13
2023-01-25T09:23:01.056Z,18.63
2023-01-25T09:25:27.996Z,19.13
2023-01-25T09:27:54.721Z,18.63
2023-01-25T09:30:26.345Z,20.37
2023-01-25T09:32:57.525Z,18.23
2023-01-25T09:35:24.325Z,18.10
2023-01-25T09:37:52.570Z,18.47
2023-01-25T09:40:22.684Z,18.03
2023-01-25T09:42:49.429Z,18.43
2023-01-25T09:45:36.597Z,16.97
2023-01-25T09:48:32.688Z,17.63
2023-01-25T09:51:26.008Z,16.63
2023-01-25T09:53:56.534Z,16.13
2023-01-25T09:56:26.820Z,17.63
2023-01-25T09:59:03.609Z,16.10
2023-01-25T10:01:51.420Z,16.77
2023-01-25T10:04:34.544Z,15.93
2023-01-25T10:07:22.428Z,16.37
2023-01-25T10:10:07.657Z,16.53
2023-01-25T10:12:39.222Z,15.33
2023-01-25T10:15:19.099Z,15.70
2023-01-25T10:17:50.555Z,15.17
2023-01-25T10:20:26.466Z,15.20
2023-01-25T10:23:14.901Z,14.87
2023-01-25T10:25:45.783Z,15.93
2023-01-25T10:28:37.482Z,15.10
2023-01-25T10:31:20.094Z,14.97
2023-01-25T10:33:48.665Z,14.10
2023-01-25T10:36:23.067Z,13.93
2023-01-25T10:38:49.873Z,14.17
2023-01-25T10:41:28.955Z,13.47
2023-01-25T10:44:14.193Z,13.20
2023-01-25T10:46:44.278Z,14.47
2023-01-25T10:49:35.943Z,13.93
2023-01-25T10:52:13.989Z,13.63
2023-01-25T10:54:40.929Z,14.33
2023-01-25T10:57:09.564Z,14.20
2023-01-25T10:59:37.156Z,13.83
2023-01-25T11:02:41.844Z,14.30
2023-01-25T11:05:35.860Z,14.47
2023-01-25T11:08:21.320Z,14.03
2023-01-25T11:10:48.195Z,12.80
2023-01-25T11:13:14.912Z,14.13
2023-01-25T11:15:44.765Z,15.70
2023-01-25T11:18:26.428Z,13.33
2023-01-25T11:21:19.857Z,13.37
2023-01-25T11:24:09.433Z,12.77
2023-01-25T11:26:40.663Z,13.90
2023-01-25T11:29:17.361Z,13.20
2023-01-25T11:31:47.430Z,14.20
2023-01-25T11:34:20.425Z,14.50
2023-01-25T11:36:50.207Z,13.83
2023-01-25T11:39:38.304Z,13.37
2023-01-25T11:42:58.215Z,13.60
2023-01-25T11:45:46.971Z,13.37
2023-01-25T11:48:43.523Z,12.83
2023-01-25T11:51:39.037Z,12.63
2023-01-25T11:54:20.881Z,12.57
2023-01-25T11:57:03.458Z,12.57
2023-01-25T11:59:50.196Z,12.47
2023-01-25T12:02:31.843Z,13.33
2023-01-25T12:05:28.410Z,13.73
2023-01-25T12:07:55.084Z,14.93
2023-01-25T12:10:38.887Z,14.17
2023-01-25T12:13:21.217Z,13.60
2023-01-25T12:15:57.073Z,14.13
2023-01-25T12:19:08.728Z,14.27
2023-01-25T12:22:05.567Z,14.23
2023-01-25T12:24:50.868Z,12.97
2023-01-25T12:27:45.581Z,14.23
2023-01-25T12:30:31.312Z,13.23
2023-01-25T12:33:14.663Z,13.90
2023-01-25T12:36:01.271Z,14.43
2023-01-25T12:38:41.406Z,13.40
2023-01-25T12:41:08.470Z,13.90
2023-01-25T12:44:13.419Z,14.27
2023-01-25T12:46:59.516Z,13.07
2023-01-25T12:49:34.886Z,14.17
2023-01-25T12:52:07.272Z,12.43
2023-01-25T12:54:38.798Z,14.53
2023-01-25T12:57:30.213Z,13.90
2023-01-25T13:00:03.110Z,14.10
2023-01-25T13:02:50.150Z,12.73
2023-01-25T13:05:22.770Z,14.43
2023-01-25T13:08:14.038Z,13.47
2023-01-25T13:10:51.119Z,15.00
2023-01-25T13:13:30.189Z,14.07
2023-01-25T13:15:57.017Z,14.30
2023-01-25T13:18:35.899Z,12.77
2023-01-25T13:21:06.592Z,13.00
2023-01-25T13:23:48.652Z,14.40
2023-01-25T13:26:22.025Z,14.67
2023-01-25T13:28:51.016Z,15.50
2023-01-25T13:31:51.992Z,14.77
2023-01-25T13:34:44.332Z,13.30
2023-01-25T13:37:23.150Z,14.33
2023-01-25T13:39:52.708Z,14.10
2023-01-25T13:42:27.180Z,14.10
2023-01-25T13:44:57.330Z,14.37
2023-01-25T13:47:38.163Z,14.23
2023-01-25T13:50:26.939Z,15.90
2023-01-25T13:53:06.281Z,15.77
2023-01-25T13:55:44.772Z,14.60
2023-01-25T13:58:18.458Z,15.00
2023-01-25T14:01:09.000Z,14.23
2023-01-25T14:03:55.746Z,16.03
2023-01-25T14:06:28.382Z,14.87
2023-01-25T14:08:58.544Z,14.83
2023-01-25T14:11:30.352Z,15.40
2023-01-25T14:14:18.377Z,14.23
2023-01-25T14:16:45.171Z,15.13
2023-01-25T14:19:28.910Z,15.57
2023-01-25T14:22:20.346Z,15.10
2023-01-25T14:25:07.345Z,15.10
2023-01-25T14:27:36.090Z,14.37
2023-01-25T14:30:04.360Z,15.87
2023-01-25T14:32:45.307Z,15.83
2023-01-25T14:35:42.492Z,15.53
2023-01-25T14:38:30.584Z,15.33
2023-01-25T14:41:02.280Z,15.93
2023-01-25T14:43:30.155Z,14.47
2023-01-25T14:45:57.413Z,15.50
2023-01-25T14:48:41.464Z,15.50
2023-01-25T14:51:17.328Z,16.90
2023-01-25T14:53:50.701Z,15.87
2023-01-25T14:56:32.825Z,16.17
2023-01-25T14:59:00.494Z,16.67
2023-01-25T15:01:40.409Z,16.67
2023-01-25T15:04:13.019Z,16.33
2023-01-25T15:06:53.123Z,16.87
2023-01-25T15:10:24.794Z,16.70
2023-01-25T15:13:15.567Z,14.77
2023-01-25T15:15:58.330Z,15.30
2023-01-25T15:18:52.389Z,15.23
2023-01-25T15:21:28.043Z,14.73
2023-01-25T15:23:57.281Z,16.13
2023-01-25T15:26:30.522Z,15.10
2023-01-25T15:28:59.744Z,15.67
2023-01-25T15:31:32.808Z,15.83
2023-01-25T15:34:01.524Z,15.50
2023-01-25T15:36:29.451Z,16.97
2023-01-25T15:38:56.221Z,16.23
2023-01-25T15:41:23.203Z,15.47
2023-01-25T15:43:50.369Z,15.47
2023-01-25T15:46:22.016Z,15.03
2023-01-25T15:48:50.188Z,15.70
2023-01-25T15:51:18.355Z,14.93
2023-01-25T15:53:45.446Z,15.23
2023-01-25T15:56:19.750Z,14.77
2023-01-25T15:58:53.407Z,14.77
2023-01-25T16:01:21.989Z,15.40
2023-01-25T16:03:48.799Z,14.93
2023-01-25T16:06:37.331Z,15.30
2023-01-25T16:09:15.206Z,15.40
2023-01-25T16:11:42.687Z,14.37
2023-01-25T16:14:09.758Z,15.00
2023-01-25T16:16:44.378Z,14.53
2023-01-25T16:19:17.737Z,14.33
2023-01-25T16:21:44.759Z,15.20
2023-01-25T16:24:12.036Z,14.47
2023-01-25T16:26:44.688Z,14.83
2023-01-25T16:29:12.462Z,15.17
2023-01-25T16:31:39.306Z,13.20
2023-01-25T16:34:06.124Z,14.87
2023-01-25T16:36:34.540Z,14.00
2023-01-25T16:39:21.279Z,14.63
2023-01-25T16:41:49.072Z,12.73
2023-01-25T16:44:16.546Z,13.53
2023-01-25T16:46:44.081Z,14.70
2023-01-25T16:49:23.472Z,13.20
2023-01-25T16:51:50.932Z,13.50
2023-01-25T16:54:20.104Z,14.43
2023-01-25T16:56:48.403Z,14.13
2023-01-25T16:59:15.523Z,14.10
2023-01-25T17:01:42.607Z,14.30
2023-01-25T17:04:09.850Z,15.13
2023-01-25T17:06:40.288Z,15.30
2023-01-25T17:09:21.933Z,15.17
2023-01-25T17:11:50.237Z,15.80
2023-01-25T17:14:19.140Z,15.43
2023-01-25T17:16:48.410Z,16.10
2023-01-25T17:19:17.210Z,15.13
2023-01-25T17:21:45.135Z,16.97
2023-01-25T17:24:18.955Z,16.63
2023-01-25T17:26:45.775Z,16.70
2023-01-25T17:29:13.966Z,18.67
2023-01-25T17:31:42.226Z,18.57
2023-01-25T17:34:13.637Z,17.17
2023-01-25T17:36:40.492Z,17.60
2023-01-25T17:39:07.980Z,18.03
2023-01-25T17:41:34.889Z,18.37
2023-01-25T17:44:02.106Z,18.90
2023-01-25T17:46:33.336Z,19.47
2023-01-25T17:49:02.528Z,19.20
2023-01-25T17:51:30.360Z,19.13
2023-01-25T17:53:57.871Z,20.77
2023-01-25T17:56:24.906Z,20.07
2023-01-25T17:58:51.719Z,21.13
2023-01-25T18:01:21.453Z,19.53
2023-01-25T18:03:50.097Z,20.50
2023-01-25T18:06:19.420Z,21.90
2023-01-25T18:08:48.693Z,21.13
2023-01-25T18:11:19.808Z,21.30
2023-01-25T18:13:48.806Z,20.07
2023-01-25T18:16:17.433Z,22.67
2023-01-25T18:18:45.591Z,22.73
2023-01-25T18:21:15.691Z,23.00
2023-01-25T18:23:46.319Z,24.97
2023-01-25T18:26:25.111Z,22.80
2023-01-25T18:28:55.355Z,24.17
2023-01-25T18:31:22.101Z,24.87
2023-01-25T18:33:48.875Z,25.17
2023-01-25T18:36:17.817Z,25.17
2023-01-25T18:38:45.437Z,26.47
2023-01-25T18:41:12.358Z,26.37
2023-01-25T18:43:39.266Z,25.57
2023-01-25T18:46:06.322Z,26.77
2023-01-25T18:48:33.549Z,26.77
2023-01-25T18:51:07.115Z,28.67
2023-01-25T18:53:35.953Z,28.23
2023-01-25T18:56:07.335Z,29.37
2023-01-25T18:58:36.470Z,27.40
2023-01-25T19:01:10.543Z,30.67
2023-01-25T19:03:37.611Z,29.87
2023-01-25T19:06:04.752Z,30.47
2023-01-25T19:08:33.135Z,31.10
2023-01-25T19:11:01.889Z,31.83
2023-01-25T19:13:32.129Z,32.50
2023-01-25T19:16:04.693Z,31.33
2023-01-25T19:18:34.193Z,34.47
2023-01-25T19:21:01.384Z,33.33
2023-01-25T19:23:34.088Z,32.67
2023-01-25T19:26:00.909Z,34.80
2023-01-25T19:28:28.466Z,33.93
2023-01-25T19:30:55.966Z,35.20
2023-01-25T19:33:22.883Z,33.03
2023-01-25T19:35:49.653Z,33.00
2023-01-25T19:38:16.401Z,33.40
2023-01-25T19:40:43.571Z,35.57
2023-01-25T19:43:10.610Z,34.63
2023-01-25T19:45:37.385Z,34.17
2023-01-25T19:48:07.155Z,35.77
2023-01-25T19:50:34.618Z,36.63
2023-01-25T19:53:04.438Z,35.77
2023-01-25T19:55:32.180Z,35.07
2023-01-25T19:57:59.708Z,36.63
2023-01-25T20:00:28.420Z,36.93
2023-01-25T20:03:07.247Z,34.20
2023-01-25T20:05:42.180Z,34.77
2023-01-25T20:08:09.535Z,36.00
2023-01-25T20:10:36.500Z,34.67
2023-01-25T20:13:03.573Z,34.63
2023-01-25T20:15:30.468Z,33.60
2023-01-25T20:17:57.428Z,35.47
2023-01-25T20:20:24.153Z,33.17
2023-01-25T20:22:53.312Z,35.03
2023-01-25T20:25:20.130Z,35.60
2023-01-25T20:27:46.868Z,35.43
2023-01-25T20:30:13.579Z,34.40
2023-01-25T20:32:41.486Z,35.83
2023-01-25T20:35:09.245Z,34.47
2023-01-25T20:37:36.067Z,34.23
2023-01-25T20:40:02.750Z,34.40
2023-01-25T20:42:29.472Z,35.30
2023-01-25T20:44:56.323Z,34.53
2023-01-25T20:47:23.297Z,35.63
2023-01-25T20:49:50.351Z,34.90
2023-01-25T20:52:17.120Z,35.20
2023-01-25T20:54:43.946Z,36.37
2023-01-25T20:57:10.702Z,36.27
2023-01-25T20:59:37.557Z,36.67
2023-01-25T21:02:07.016Z,35.97
2023-01-25T21:04:33.922Z,36.33
2023-01-25T21:07:00.991Z,33.97
2023-01-25T21:09:28.336Z,35.33
2023-01-25T21:11:55.483Z,36.43
2023-01-25T21:14:22.441Z,36.90
2023-01-25T21:16:49.169Z,36.03
2023-01-25T21:19:15.824Z,34.33
2023-01-25T21:21:42.527Z,36.80
2023-01-25T21:24:09.380Z,37.30
2023-01-25T21:26:38.231Z,36.07
2023-01-25T21:29:06.337Z,35.17
2023-01-25T21:31:36.560Z,34.97
2023-01-25T21:34:05.241Z,37.73
2023-01-25T21:36:33.058Z,36.17
2023-01-25T21:39:01.047Z,36.50
2023-01-25T21:41:32.212Z,35.63
2023-01-25T21:44:18.988Z,34.57
2023-01-25T21:47:12.414Z,34.53
2023-01-25T21:49:53.173Z,33.47
2023-01-25T21:52:20.300Z,32.97
2023-01-25T21:54:48.176Z,33.90
2023-01-25T21:57:15.002Z,32.07
2023-01-25T21:59:41.638Z,34.57
2023-01-25T22:02:14.080Z,32.33
2023-01-25T22:04:41.016Z,34.20
2023-01-25T22:07:09.016Z,34.07
2023-01-25T22:09:36.311Z,33.43
2023-01-25T22:12:03.032Z,32.73
2023-01-25T22:14:29.852Z,34.97
2023-01-25T22:16:56.642Z,34.37
2023-01-25T22:19:23.453Z,33.77
2023-01-25T22:21:50.125Z,35.77
2023-01-25T22:24:17.333Z,35.43
2023-01-25T22:26:52.923Z,35.70
2023-01-25T22:29:20.234Z,36.97
2023-01-25T22:31:47.216Z,35.87
2023-01-25T22:34:13.934Z,36.10
2023-01-25T22:36:40.713Z,34.80
2023-01-25T22:39:07.852Z,37.90
2023-01-25T22:41:37.765Z,34.73
2023-01-25T22:44:04.935Z,37.30
2023-01-25T22:46:31.688Z,38.13
2023-01-25T22:49:01.407Z,38.37
2023-01-25T22:51:30.629Z,37.50
2023-01-25T22:54:00.710Z,38.83
2023-01-25T22:56:30.287Z,38.80
2023-01-25T22:58:57.802Z,38.63
2023-01-25T23:01:30.885Z,38.80
2023-01-25T23:03:57.959Z,37.67
2023-01-25T23:06:31.067Z,39.00
2023-01-25T23:09:00.037Z,37.97
2023-01-25T23:11:32.379Z,39.10
2023-01-25T23:14:18.163Z,41.03
2023-01-25T23:16:44.835Z,40.00
2023-01-25T23:19:11.922Z,41.33
2023-01-25T23:21:39.031Z,39.73
2023-01-25T23:24:06.161Z,41.37
2023-01-25T23:26:37.707Z,41.63
2023-01-25T23:29:09.351Z,39.33
2023-01-25T23:31:36.790Z,41.67
2023-01-25T23:34:05.882Z,38.97
2023-01-25T23:36:35.490Z,38.63
2023-01-25T23:39:03.129Z,41.20
2023-01-25T23:41:31.115Z,38.93
2023-01-25T23:43:58.378Z,40.67
2023-01-25T23:46:25.701Z,40.60
2023-01-25T23:48:52.689Z,43.07
2023-01-25T23:51:20.408Z,41.57
2023-01-25T23:53:47.777Z,44.07
2023-01-25T23:56:20.634Z,40.80
2023-01-25T23:58:48.223Z,42.50
